Hoppa till innehåll

METAR väder och rapporter - ENGM

Nedan listas information från vald flygplats. Andra METARs finns längre ned på sidan. Kontakta oss om någon saknas eller skriv in egen ICAO-kod.

Coded METAR: 2022/12/01 12:50 ENGM 011250Z 01005KT 9000 -SN FEW005 BKN008 M01/M02 Q1035 TEMPO BKN012

Weather Report @ ENGM

Issued: 1st Dec 2022 at 13:50 CET

Wind: light breeze from the North (010 degrees) at 5 knots (6 mph, 9 kph, 3 mps, Force 2)
Visibility: 9000 metres
Weather: light snow
Cloud: a few clouds at 500 feet
Cloud: broken at 800 feet
Temperature: 30F / -1C
Dewpoint: 28F / -2C
Humidity: 93%
Pressure: 1035 hPa
From time to time (<1hr):
Cloud: broken at 1200 feet

Coded TAF: 2022/12/01 12:57 TAF ENGM 0112/0212 01005KT 9999 FEW010 BKN080 PROB40 TEMPO 0112/0212 4000 -SN BKN008

Weather Forecast @ ENGM

Issued: 1st Dec 2022 at 13:57 CET

Valid : 1st Dec 01:00 until 01:00 CET

01:00 CET
DATA TOO OLD TO BE USEFUL !

Internet delivery of weather data is not secure or reliable enough for operational purposes.

NEVER RELY ON THE OUTPUT OF THIS SCRIPT TO MAKE DECISIONS ABOUT ANYTHING IN WHICH THE WEATHER FORECAST AND ITS INTERPRETATION COULD BE AN ISSUE OF SAFETY.

Andra intressanta METARs

Klicka på önskad rubrik nedan för att visa nuvarande väder för den platsen.

Avstånd från stationen: NO 27kmESGG - Göteborg (Landvetter)
Uppdaterad: 2022-12-01 13:50
 Vind från NO
Vind: NO 13 km/h
Temperatur: 2°C
Vindavkylning: -1°C
Daggpunkt: 0°C
Luftfuktighet: 87%
Barometer: 1032 hPa
Moln: Övervägande molnigt
Sikt: 10 km
Molninformation: Övervägande molnigt 244 m
2022/12/01 12:50 ESGG 011250Z 04007KT 9999 BKN008 02/00 Q1032
Övervägande molnigt
Övervägande molnigt
  Visa detaljer för Göteborg (Landvetter)
Avstånd från stationen: N 28kmESGP - Göteborg (Säve)
Uppdaterad: 2022-12-01 13:50
 Vind från NNO
Vind: NNO 9 km/h
Temperatur: 3°C
Vindavkylning: 0°C
Daggpunkt: 1°C
Luftfuktighet: 87%
Barometer: 1033 hPa
Moln: Övervägande molnigt
Sikt: 10 km
Molninformation: Övervägande molnigt 335 m
2022/12/01 12:50 ESGP 011250Z 03005KT 9999 BKN011 03/01 Q1033
Övervägande molnigt
Övervägande molnigt
  Visa detaljer för Göteborg (Säve)
Avstånd från stationen: NO 419kmESSA - Stockholm (Arlanda)
Uppdaterad: 2022-12-01 13:50
 Vind från ONO
Vind: ONO 9 km/h
Temperatur: 2°C
Vindavkylning: -1°C
Daggpunkt: 1°C
Luftfuktighet: 93%
Barometer: 1035 hPa
Summering: Lätt regn, Patches of, Dimma
Moln: Övervägande molnigt
Sikt: 7 km
Molninformation: Några få moln 549 m
Övervägande molnigt 1006 m
Övervägande molnigt 1737 m
2022/12/01 12:50 ESSA 011250Z 07005KT 7000 -RA BCFG FEW018 BKN033 BKN057 02/01 Q1035 TEMPO 4000 DZ BKN010
Lätt regn, Patches of, Dimma, Övervägande molnigt
Lätt regn
Patches of
Dimma
Övervägande molnigt
  Visa detaljer för Stockholm (Arlanda)
Avstånd från stationen: ONO 404kmESSB - Stockholm (Bromma)
Uppdaterad: 2022-12-01 13:50
 Vind från O
Vind: O 9 km/h
Temperatur: 3°C
Vindavkylning: 0°C
Daggpunkt: 3°C
Luftfuktighet: 100%
Barometer: 1035 hPa
Summering: Lätt duggregn
Moln: Övervägande molnigt
Sikt: 10 km
Molninformation: Delvis molnigt 335 m
Övervägande molnigt 792 m
2022/12/01 12:50 ESSB 011250Z 08005KT 9999 -DZ SCT011 BKN026 03/03 Q1035
Lätt duggregn, Övervägande molnigt
Lätt duggregn
Övervägande molnigt
  Visa detaljer för Stockholm (Bromma)
Avstånd från stationen: ONO 323kmESKN - Stockholm (Skavsta)
Uppdaterad: 2022-12-01 13:50
 Vind från NNO
Vind: NNO 7 km/h
Temperatur: 2°C
Vindavkylning: 0°C
Daggpunkt: 2°C
Luftfuktighet: 100%
Barometer: 1034 hPa
Summering: Lätt regn, Dimmigt
Moln: Övervägande molnigt
Sikt: 5 km
Molninformation: Övervägande molnigt 640 m
2022/12/01 12:50 ESKN 011250Z 03004KT 4800 -RA BR BKN021 02/02 Q1034
Lätt regn, Dimmigt, Övervägande molnigt
Lätt regn
Dimmigt
Övervägande molnigt
  Visa detaljer för Stockholm (Skavsta)
Avstånd från stationen: SSO 238kmESMS - Malmö flygplats (Sturup)
Uppdaterad: 2022-12-01 13:50
 Vind från NO
Vind: NO 6 km/h
Temperatur: 3°C
Daggpunkt: 2°C
Luftfuktighet: 93%
Barometer: 1030 hPa
Moln: Genommulet
Sikt: 7 km
Molninformation: Genommulet 671 m
2022/12/01 12:50 ESMS 011250Z 05003KT 7000 OVC022 03/02 Q1030
Genommulet
Genommulet
  Visa detaljer för Malmö flygplats (Sturup)
Avstånd från stationen: O 382kmESSV - Visby flygplats
Uppdaterad: 2022-12-01 13:50
 Vind från O
Vind: O 11 km/h
Temperatur: 3°C
Vindavkylning: 0°C
Daggpunkt: 2°C
Luftfuktighet: 93%
Barometer: 1033 hPa
Summering: Klart
Sikt: mer än 10 km
2022/12/01 12:50 ESSV 011250Z 09006KT CAVOK 03/02 Q1033
Klart
Klart
  Visa detaljer för Visby flygplats
Avstånd från stationen: NNO 92kmESGT - Trollhättan
Uppdaterad: 2022-12-01 13:50
 Vind från NO
Vind: NO 9 km/h
Temperatur: 3°C
Vindavkylning: 0°C
Daggpunkt: 1°C
Luftfuktighet: 87%
Barometer: 1034 hPa
Summering: Lätt duggregn
Moln: Övervägande molnigt
Sikt: 10 km
Molninformation: Delvis molnigt 396 m
Delvis molnigt 671 m
Övervägande molnigt 1189 m
2022/12/01 12:50 ESGT 011250Z 05005KT 020V080 9999 -DZ SCT013 SCT022 BKN039 03/01 Q1034
Lätt duggregn, Övervägande molnigt
Lätt duggregn
Övervägande molnigt
  Visa detaljer för Trollhättan
Avstånd från stationen: ONO 129kmESGJ - Jönköpings flygplats
Uppdaterad: 2022-12-01 13:50
 Vind från NO
Vind: NO 6 km/h
Temperatur: 2°C
Daggpunkt: 2°C
Luftfuktighet: 100%
Barometer: 1032 hPa
Moln: Övervägande molnigt
Sikt: 10 km
Molninformation: Övervägande molnigt 183 m
2022/12/01 12:50 ESGJ 011250Z 05003KT 9999 BKN006 02/02 Q1032
Övervägande molnigt
Övervägande molnigt
  Visa detaljer för Jönköpings flygplats
Avstånd från stationen: NNO 229kmESOK - Karlstad
Uppdaterad: 2022-12-01 13:50
 Vind från N
Vind: N 7 km/h
Temperatur: 1°C
Vindavkylning: -2°C
Daggpunkt: 1°C
Luftfuktighet: 100%
Barometer: 1034 hPa
Moln: Övervägande molnigt
Sikt: 10 km
Molninformation: Delvis molnigt 91 m
Övervägande molnigt 549 m
2022/12/01 12:50 ESOK 011250Z 01004KT 9999 SCT003 BKN018 01/01 Q1034
Övervägande molnigt
Övervägande molnigt
  Visa detaljer för Karlstad
Avstånd från stationen: N 643kmESNZ - Östersund (Frösön)
Uppdaterad: 2022-12-01 13:50
 Vind från varierande
Vind: varierande 6 km/h
Temperatur: -3°C
Daggpunkt: -3°C
Luftfuktighet: 100%
Barometer: 1035 hPa
Moln: Genommulet
Sikt: 10 km
Molninformation: Genommulet 91 m
2022/12/01 12:50 ESNZ 011250Z AUTO VRB03KT 9999 OVC003/// M03/M03 Q1035
Genommulet
Genommulet
  Visa detaljer för Östersund (Frösön)
Avstånd från stationen: SSO 216kmEKCH - Köpenhamn (Kastrup)
Uppdaterad: 2022-12-01 13:50
 Vind från NO
Vind: NO 13 km/h
Temperatur: 5°C
Vindavkylning: 2°C
Daggpunkt: 3°C
Luftfuktighet: 87%
Barometer: 1031 hPa
Moln: Övervägande molnigt
Sikt: 10 km
Molninformation: Övervägande molnigt 1006 m
2022/12/01 12:50 EKCH 011250Z 05007KT 9999 BKN033 05/03 Q1031 NOSIG
Övervägande molnigt
Övervägande molnigt
  Visa detaljer för Köpenhamn (Kastrup)
Avstånd från stationen: SV 263kmEKBI - Billund Airport
Uppdaterad: 2022-12-01 13:50
 Vind från NO
Vind: NO 13 km/h
Temperatur: 4°C
Vindavkylning: 1°C
Daggpunkt: 3°C
Luftfuktighet: 93%
Barometer: 1030 hPa
Moln: Övervägande molnigt
Sikt: 10 km
Molninformation: Några få moln 975 m
Några få moln 1097 m
Övervägande molnigt 2256 m
2022/12/01 12:50 EKBI 011250Z AUTO 05007KT 9999 FEW032/// FEW036/// BKN074/// 04/03 Q1030
Övervägande molnigt
Övervägande molnigt
  Visa detaljer för Billund Airport
Avstånd från stationen: N 302kmENGM - Oslo (Gardermoen)
Uppdaterad: 2022-12-01 13:50
 Vind från N
Vind: N 9 km/h
Temperatur: -1°C
Vindavkylning: -4°C
Daggpunkt: -2°C
Luftfuktighet: 93%
Barometer: 1035 hPa
Summering: Light Snow
Moln: Övervägande molnigt
Sikt: 9 km
Molninformation: Några få moln 152 m
Övervägande molnigt 244 m
2022/12/01 12:50 ENGM 011250Z 01005KT 9000 -SN FEW005 BKN008 M01/M02 Q1035 TEMPO BKN012
Light snow, Övervägande molnigt
Light snow
Övervägande molnigt
  Visa detaljer för Oslo (Gardermoen)
Avstånd från stationen: NO 540kmEFMA - Mariehamn / Åland
Uppdaterad: 2022-12-01 13:50
 Vind från OSO
Vind: OSO 11 km/h
Temperatur: 3°C
Vindavkylning: 0°C
Daggpunkt: 1°C
Luftfuktighet: 87%
Barometer: 1036 hPa
Moln: Genommulet
Sikt: 10 km
Molninformation: Genommulet 518 m
2022/12/01 12:50 EFMA 011250Z AUTO 11006KT 9999 OVC017 03/01 Q1036
Genommulet
Genommulet
  Visa detaljer för Mariehamn / Åland
Avstånd från stationen: S 558kmEDDT - Berlin (Tegel), Germany
Uppdaterad: 2020-11-09 07:50
Ej aktuell
 Vind från O
Vind: O 11 km/h
Temperatur: 6°C
Vindavkylning: 4°C
Daggpunkt: 5°C
Luftfuktighet: 93%
Barometer: 1027 hPa
Summering: Dimmigt
Moln: Genommulet
Sikt: 3 km
Molninformation: Genommulet 91 m
2020/11/09 06:50 EDDT 090650Z 09006KT 050V120 3000 BR OVC003 06/05 Q1027
Dimmigt, Genommulet
Dimmigt
Genommulet
  Visa detaljer för Berlin (Tegel), Germany
Avstånd från stationen: SV 737kmEHAM - Amsterdam (Schiphol)
Uppdaterad: 2022-12-01 13:25
 Vind från NO
Vind: NO 13 km/h
Temperatur: 8°C
Vindavkylning: 6°C
Daggpunkt: 3°C
Luftfuktighet: 71%
Barometer: 1028 hPa
Moln: Några få moln
Sikt: 10 km
Molninformation: Några få moln 579 m
2022/12/01 12:25 EHAM 011225Z 04007KT 010V070 9999 FEW019 08/03 Q1028 NOSIG
Några få moln
Några få moln
  Visa detaljer för Amsterdam (Schiphol)
Avstånd från stationen: ONO 808kmEFHK - Helsingfors (Vantaa)
Uppdaterad: 2022-12-01 13:50
 Vind från ONO
Vind: ONO 13 km/h
Temperatur: -1°C
Vindavkylning: -6°C
Daggpunkt: -2°C
Luftfuktighet: 93%
Barometer: 1038 hPa
Moln: Övervägande molnigt
Sikt: 10 km
Molninformation: Några få moln 213 m
Övervägande molnigt 335 m
2022/12/01 12:50 EFHK 011250Z 06007KT 9999 FEW007 BKN011 M01/M02 Q1038 NOSIG
Övervägande molnigt
Övervägande molnigt
  Visa detaljer för Helsingfors (Vantaa)
Avstånd från stationen: SSV 537kmEDDW - Bremen
Uppdaterad: 2022-12-01 13:50
 Vind från ONO
Vind: ONO 11 km/h
Temperatur: 4°C
Vindavkylning: 1°C
Daggpunkt: 2°C
Luftfuktighet: 87%
Barometer: 1028 hPa
Moln: Genommulet
Sikt: 10 km
Molninformation: Genommulet 427 m
2022/12/01 12:50 EDDW 011250Z AUTO 07006KT 9999 OVC014 04/02 Q1028 TEMPO 4000 BR OVC009
Genommulet
Genommulet
  Visa detaljer för Bremen
Avstånd från stationen: SSV 861kmEDDF - Frankfurt am Main
Uppdaterad: 2022-12-01 13:50
 Vind från NNO
Vind: NNO 17 km/h
Temperatur: 5°C
Vindavkylning: 2°C
Daggpunkt: 1°C
Luftfuktighet: 76%
Barometer: 1024 hPa
Moln: Genommulet
Sikt: 10 km
Molninformation: Några få moln 579 m
Genommulet 914 m
2022/12/01 12:50 EDDF 011250Z AUTO 02009KT 350V050 9999 FEW019 OVC030 05/01 Q1024 NOSIG
Genommulet
Genommulet
  Visa detaljer för Frankfurt am Main
Avstånd från stationen: SV 880kmEBBR - Bryssel international
Uppdaterad: 2022-12-01 13:50
 Vind från NNO
Vind: NNO 11 km/h
Temperatur: 6°C
Vindavkylning: 4°C
Daggpunkt: 4°C
Luftfuktighet: 87%
Barometer: 1027 hPa
Moln: Övervägande molnigt
Sikt: 10 km
Molninformation: Övervägande molnigt 366 m
Övervägande molnigt 671 m
2022/12/01 12:50 EBBR 011250Z 02006KT 9999 BKN012 BKN022 06/04 Q1027 NOSIG
Övervägande molnigt
Övervägande molnigt
  Visa detaljer för Bryssel international
Avstånd från stationen: SV 738kmEHAM - Amsterdam (Schiphol)
Uppdaterad: 2022-12-01 13:25
 Vind från NO
Vind: NO 13 km/h
Temperatur: 8°C
Vindavkylning: 6°C
Daggpunkt: 3°C
Luftfuktighet: 71%
Barometer: 1028 hPa
Moln: Några få moln
Sikt: 10 km
Molninformation: Några få moln 579 m
2022/12/01 12:25 EHAM 011225Z 04007KT 010V070 9999 FEW019 08/03 Q1028 NOSIG
Några få moln
Några få moln
  Visa detaljer för Amsterdam (Schiphol)
Avstånd från stationen: SV 1044kmEGLL - London (Heathrow)
Uppdaterad: 2022-12-01 13:50
 Vind från NV
Vind: NV 6 km/h
Temperatur: 7°C
Daggpunkt: 5°C
Luftfuktighet: 87%
Barometer: 1029 hPa
Summering: Disigt
Moln: Övervägande molnigt
Sikt: 2 km
Molninformation: Delvis molnigt 30 m
Övervägande molnigt 183 m
2022/12/01 12:50 EGLL 011250Z 31003KT 280V340 1500 HZ SCT001 BKN006 07/05 Q1029 TEMPO 6000
Disigt, Övervägande molnigt
Disigt
Övervägande molnigt
  Visa detaljer för London (Heathrow)
Avstånd från stationen: SV 1132kmLFPG - Paris (Charles de Gaulle)
Uppdaterad: 2022-12-01 13:30
 Vind från N
Vind: N 22 km/h
Temperatur: 6°C
Vindavkylning: 2°C
Daggpunkt: 4°C
Luftfuktighet: 87%
Barometer: 1025 hPa
Moln: Övervägande molnigt
Sikt: 8 km
Molninformation: Övervägande molnigt 213 m
Övervägande molnigt 1463 m
2022/12/01 12:30 LFPG 011230Z 01012KT 8000 BKN007 BKN048 06/04 Q1025 TEMPO BKN012
Övervägande molnigt
Övervägande molnigt
  Visa detaljer för Paris (Charles de Gaulle)
Avstånd från stationen: SSV 1142kmLSZH - Zürich Airport
Uppdaterad: 2022-12-01 13:50
 Vind från N
Vind: N 7 km/h
Temperatur: 4°C
Vindavkylning: 2°C
Daggpunkt: 0°C
Luftfuktighet: 75%
Barometer: 1020 hPa
Moln: Övervägande molnigt
Sikt: 10 km
Molninformation: Några få moln 457 m
Övervägande molnigt 549 m
2022/12/01 12:50 LSZH 011250Z 01004KT 9999 FEW015 BKN018 04/M00 Q1020 NOSIG
Övervägande molnigt
Övervägande molnigt
  Visa detaljer för Zürich Airport
Avstånd från stationen: S 1749kmLIRF - Rome Airport (Fiumicino - Leonardo da Vinci)
Uppdaterad: 2022-12-01 13:50
 Vind från SO
Vind: SO 6 km/h
Temperatur: 14°C
Daggpunkt: 5°C
Luftfuktighet: 55%
Barometer: 1014 hPa
Summering: Klart
Sikt: mer än 10 km
2022/12/01 12:50 LIRF 011250Z 13003KT 090V170 CAVOK 14/05 Q1014 NOSIG
Klart
Klart
  Visa detaljer för Rome Airport (Fiumicino - Leonardo da Vinci)
Avstånd från stationen: SO 2679kmLTAI - Antalya
Uppdaterad: 2022-12-01 13:20
 Vind från NNO
Vind: NNO 11 km/h
Temperatur: 17°C
Daggpunkt: 15°C
Luftfuktighet: 88%
Barometer: 1018 hPa
Moln: Övervägande molnigt
Sikt: 10 km
Molninformation: Några få moln 610 m
Övervägande molnigt 914 m
2022/12/01 12:20 LTAI 011220Z 03006KT 9999 FEW020CB BKN030 17/15 Q1018 BECMG TL1320 16010KT
Övervägande molnigt
Övervägande molnigt
  Visa detaljer för Antalya
Avstånd från stationen: VSV 6074kmKJFK - New Your (JFK)
Uppdaterad: 2022-12-01 13:51
 Vind från V
Vind: V 28 km/h
Temperatur: 3°C
Vindavkylning: -3°C
Daggpunkt: -7°C
Luftfuktighet: 48%
Barometer: 1022 hPa
Moln: Några få moln
Sikt: 16 km
Molninformation: Några få moln 1676 m
2022/12/01 12:51 KJFK 011251Z 27015KT 10SM FEW055 03/M07 A3018 RMK AO2 SLP217 T00331072
Några få moln
Några få moln
  Visa detaljer för New Your (JFK)
Avstånd från stationen: VSV 8848kmKLAX - Los Angeles International Airport
Uppdaterad: 2022-12-01 13:53
 Vind från O
Vind: O 6 km/h
Temperatur: 13°C
Daggpunkt: 7°C
Luftfuktighet: 67%
Barometer: 1015.9 hPa
Moln: Genommulet
Sikt: 16 km
Molninformation: Några få moln 762 m
Genommulet 1219 m
2022/12/01 12:53 KLAX 011253Z 09003KT 10SM FEW025 OVC040 13/07 A3000 RMK AO2 SLP159 T01330067 $
Genommulet
Genommulet
  Visa detaljer för Los Angeles International Airport
Avstånd från stationen: SO 4968kmOMDB - Dubai International Airport
Uppdaterad: 2022-12-01 13:00
 Vind från NV
Vind: NV 15 km/h
Temperatur: 29°C
Värmeindex: 29°C
Daggpunkt: 18°C
Luftfuktighet: 51%
Barometer: 1014 hPa
Summering: Klart
Sikt: mer än 10 km
2022/12/01 12:00 OMDB 011200Z 31008KT 280V350 CAVOK 29/18 Q1014 NOSIG
Klart
Klart
  Visa detaljer för Dubai International Airport
Avstånd från stationen: OSO 8570kmRJTT - Tokyo International Airport
Uppdaterad: 2022-12-01 13:30
 Vind från NNO
Vind: NNO 6 km/h
Temperatur: 10°C
Daggpunkt: 7°C
Luftfuktighet: 82%
Barometer: 1017 hPa
Moln: Övervägande molnigt
Sikt: 10 km
Molninformation: Några få moln 457 m
Övervägande molnigt 762 m
2022/12/01 12:30 RJTT 011230Z 02003KT 330V060 9999 FEW015 BKN025 10/07 Q1017 NOSIG
Övervägande molnigt
Övervägande molnigt
  Visa detaljer för Tokyo International Airport
Avstånd från stationen: OSO 7125kmZBAA - Peking (Beijing Capital)
Uppdaterad: 2022-12-01 13:30
 Vind från SSV
Vind: SSV 14 km/h
Temperatur: -2°C
Vindavkylning: -7°C
Daggpunkt: -19°C
Luftfuktighet: 26%
Barometer: 1032 hPa
Summering: Klart
Sikt: mer än 10 km
2022/12/01 12:30 ZBAA 011230Z 21004MPS CAVOK M02/M19 Q1032 NOSIG
Klart
Klart
  Visa detaljer för Peking (Beijing Capital)
VÄDER KURIOSA -  AstronomyThe rings of Saturn are made of ice and rock.